sensor_id;sensor_type;location;lat;lon;timestamp;temperature;humidity
47590;DHT22;33316;52.298;9.056;2022-11-15T00:02:20;9.90;83.60
47590;DHT22;33316;52.298;9.056;2022-11-15T00:04:48;9.90;83.60
47590;DHT22;33316;52.298;9.056;2022-11-15T00:07:15;9.90;83.50
47590;DHT22;33316;52.298;9.056;2022-11-15T00:09:42;9.90;83.50
47590;DHT22;33316;52.298;9.056;2022-11-15T00:12:09;9.90;83.40
47590;DHT22;33316;52.298;9.056;2022-11-15T00:14:35;10.00;83.50
47590;DHT22;33316;52.298;9.056;2022-11-15T00:17:02;10.00;83.50
47590;DHT22;33316;52.298;9.056;2022-11-15T00:19:29;10.00;83.50
47590;DHT22;33316;52.298;9.056;2022-11-15T00:21:57;10.00;83.50
47590;DHT22;33316;52.298;9.056;2022-11-15T00:24:24;10.00;83.50
47590;DHT22;33316;52.298;9.056;2022-11-15T00:26:50;10.00;83.50
47590;DHT22;33316;52.298;9.056;2022-11-15T00:29:17;10.00;83.60
47590;DHT22;33316;52.298;9.056;2022-11-15T00:31:44;10.00;83.60
47590;DHT22;33316;52.298;9.056;2022-11-15T00:34:11;10.10;83.60
47590;DHT22;33316;52.298;9.056;2022-11-15T00:36:39;10.10;83.70
47590;DHT22;33316;52.298;9.056;2022-11-15T00:39:07;10.10;83.60
47590;DHT22;33316;52.298;9.056;2022-11-15T00:41:34;10.10;83.70
47590;DHT22;33316;52.298;9.056;2022-11-15T00:44:00;10.10;83.80
47590;DHT22;33316;52.298;9.056;2022-11-15T00:46:27;10.20;83.90
47590;DHT22;33316;52.298;9.056;2022-11-15T00:48:54;10.10;83.90
47590;DHT22;33316;52.298;9.056;2022-11-15T00:51:21;10.20;84.80
47590;DHT22;33316;52.298;9.056;2022-11-15T00:53:47;10.20;84.20
47590;DHT22;33316;52.298;9.056;2022-11-15T00:56:16;10.20;84.30
47590;DHT22;33316;52.298;9.056;2022-11-15T00:58:42;10.30;84.40
47590;DHT22;33316;52.298;9.056;2022-11-15T01:01:12;10.20;84.40
47590;DHT22;33316;52.298;9.056;2022-11-15T01:03:40;10.30;84.50
47590;DHT22;33316;52.298;9.056;2022-11-15T01:06:08;10.30;84.60
47590;DHT22;33316;52.298;9.056;2022-11-15T01:08:35;10.30;84.70
47590;DHT22;33316;52.298;9.056;2022-11-15T01:11:03;10.30;84.70
47590;DHT22;33316;52.298;9.056;2022-11-15T01:13:33;10.40;85.00
47590;DHT22;33316;52.298;9.056;2022-11-15T01:16:06;10.40;85.20
47590;DHT22;33316;52.298;9.056;2022-11-15T01:18:33;10.40;85.20
47590;DHT22;33316;52.298;9.056;2022-11-15T01:21:04;10.40;85.20
47590;DHT22;33316;52.298;9.056;2022-11-15T01:23:30;10.40;85.30
47590;DHT22;33316;52.298;9.056;2022-11-15T01:25:59;10.50;85.50
47590;DHT22;33316;52.298;9.056;2022-11-15T01:28:29;10.50;85.50
47590;DHT22;33316;52.298;9.056;2022-11-15T01:30:59;10.50;85.50
47590;DHT22;33316;52.298;9.056;2022-11-15T01:33:26;10.50;85.60
47590;DHT22;33316;52.298;9.056;2022-11-15T01:35:53;10.50;85.70
47590;DHT22;33316;52.298;9.056;2022-11-15T01:38:20;10.50;85.80
47590;DHT22;33316;52.298;9.056;2022-11-15T01:40:47;10.60;86.00
47590;DHT22;33316;52.298;9.056;2022-11-15T01:43:21;10.60;86.20
47590;DHT22;33316;52.298;9.056;2022-11-15T01:45:52;10.60;86.30
47590;DHT22;33316;52.298;9.056;2022-11-15T01:48:22;10.70;86.40
47590;DHT22;33316;52.298;9.056;2022-11-15T01:50:51;10.70;86.40
47590;DHT22;33316;52.298;9.056;2022-11-15T01:53:19;10.70;87.00
47590;DHT22;33316;52.298;9.056;2022-11-15T01:55:48;10.70;86.50
47590;DHT22;33316;52.298;9.056;2022-11-15T01:58:14;10.80;86.70
47590;DHT22;33316;52.298;9.056;2022-11-15T02:00:41;10.80;86.80
47590;DHT22;33316;52.298;9.056;2022-11-15T02:03:08;10.80;87.00
47590;DHT22;33316;52.298;9.056;2022-11-15T02:05:37;10.80;87.10
47590;DHT22;33316;52.298;9.056;2022-11-15T02:08:05;10.90;87.20
47590;DHT22;33316;52.298;9.056;2022-11-15T02:10:32;10.90;87.20
47590;DHT22;33316;52.298;9.056;2022-11-15T02:13:00;10.90;87.20
47590;DHT22;33316;52.298;9.056;2022-11-15T02:15:32;10.90;87.20
47590;DHT22;33316;52.298;9.056;2022-11-15T02:18:13;11.00;87.40
47590;DHT22;33316;52.298;9.056;2022-11-15T02:20:48;11.00;87.70
47590;DHT22;33316;52.298;9.056;2022-11-15T02:29:15;11.10;88.10
47590;DHT22;33316;52.298;9.056;2022-11-15T02:31:53;11.10;87.80
47590;DHT22;33316;52.298;9.056;2022-11-15T02:34:35;11.10;87.90
47590;DHT22;33316;52.298;9.056;2022-11-15T02:37:11;11.10;88.10
47590;DHT22;33316;52.298;9.056;2022-11-15T02:39:46;11.20;88.20
47590;DHT22;33316;52.298;9.056;2022-11-15T02:42:19;11.20;88.20
47590;DHT22;33316;52.298;9.056;2022-11-15T02:45:07;11.20;89.20
47590;DHT22;33316;52.298;9.056;2022-11-15T02:47:43;11.20;88.40
47590;DHT22;33316;52.298;9.056;2022-11-15T02:50:11;11.30;88.90
47590;DHT22;33316;52.298;9.056;2022-11-15T02:52:39;11.30;88.40
47590;DHT22;33316;52.298;9.056;2022-11-15T02:55:28;11.30;88.50
47590;DHT22;33316;52.298;9.056;2022-11-15T02:58:05;11.30;88.80
47590;DHT22;33316;52.298;9.056;2022-11-15T03:00:35;11.40;88.50
47590;DHT22;33316;52.298;9.056;2022-11-15T03:03:43;11.40;88.50
47590;DHT22;33316;52.298;9.056;2022-11-15T03:06:23;11.40;88.60
47590;DHT22;33316;52.298;9.056;2022-11-15T03:08:57;11.40;88.60
47590;DHT22;33316;52.298;9.056;2022-11-15T03:11:29;11.50;88.60
47590;DHT22;33316;52.298;9.056;2022-11-15T03:14:01;11.50;88.60
47590;DHT22;33316;52.298;9.056;2022-11-15T03:16:31;11.50;88.60
47590;DHT22;33316;52.298;9.056;2022-11-15T03:19:06;11.50;88.90
47590;DHT22;33316;52.298;9.056;2022-11-15T03:21:36;11.50;88.50
47590;DHT22;33316;52.298;9.056;2022-11-15T03:24:05;11.60;88.50
47590;DHT22;33316;52.298;9.056;2022-11-15T03:26:33;11.60;88.60
47590;DHT22;33316;52.298;9.056;2022-11-15T03:29:04;11.60;88.60
47590;DHT22;33316;52.298;9.056;2022-11-15T03:31:36;11.60;88.60
47590;DHT22;33316;52.298;9.056;2022-11-15T03:34:20;11.60;88.60
47590;DHT22;33316;52.298;9.056;2022-11-15T03:36:49;11.70;88.80
47590;DHT22;33316;52.298;9.056;2022-11-15T03:39:17;11.70;88.70
47590;DHT22;33316;52.298;9.056;2022-11-15T03:41:49;11.70;88.70
47590;DHT22;33316;52.298;9.056;2022-11-15T03:44:25;11.70;88.60
47590;DHT22;33316;52.298;9.056;2022-11-15T03:47:00;11.70;88.70
47590;DHT22;33316;52.298;9.056;2022-11-15T03:49:32;11.80;88.70
47590;DHT22;33316;52.298;9.056;2022-11-15T03:52:00;11.80;88.70
47590;DHT22;33316;52.298;9.056;2022-11-15T03:54:28;11.80;88.80
47590;DHT22;33316;52.298;9.056;2022-11-15T03:56:54;11.80;88.70
47590;DHT22;33316;52.298;9.056;2022-11-15T03:59:21;11.80;88.70
47590;DHT22;33316;52.298;9.056;2022-11-15T04:01:48;11.80;88.60
47590;DHT22;33316;52.298;9.056;2022-11-15T04:04:15;11.80;88.60
47590;DHT22;33316;52.298;9.056;2022-11-15T04:06:43;11.80;88.60
47590;DHT22;33316;52.298;9.056;2022-11-15T04:09:10;11.80;88.60
47590;DHT22;33316;52.298;9.056;2022-11-15T04:11:37;11.90;88.60
47590;DHT22;33316;52.298;9.056;2022-11-15T04:14:04;11.80;88.50
47590;DHT22;33316;52.298;9.056;2022-11-15T04:16:30;11.90;88.60
47590;DHT22;33316;52.298;9.056;2022-11-15T04:18:57;11.90;88.60
47590;DHT22;33316;52.298;9.056;2022-11-15T04:21:43;11.90;88.40
47590;DHT22;33316;52.298;9.056;2022-11-15T04:24:32;11.90;88.30
47590;DHT22;33316;52.298;9.056;2022-11-15T04:26:59;11.90;88.30
47590;DHT22;33316;52.298;9.056;2022-11-15T04:29:26;11.90;88.20
47590;DHT22;33316;52.298;9.056;2022-11-15T04:32:02;11.90;88.20
47590;DHT22;33316;52.298;9.056;2022-11-15T04:34:29;12.00;88.20
47590;DHT22;33316;52.298;9.056;2022-11-15T04:36:57;12.00;88.00
47590;DHT22;33316;52.298;9.056;2022-11-15T04:39:39;12.00;87.90
47590;DHT22;33316;52.298;9.056;2022-11-15T04:42:07;12.00;87.90
47590;DHT22;33316;52.298;9.056;2022-11-15T04:44:35;12.00;87.80
47590;DHT22;33316;52.298;9.056;2022-11-15T04:47:02;12.00;87.70
47590;DHT22;33316;52.298;9.056;2022-11-15T04:49:29;12.00;87.70
47590;DHT22;33316;52.298;9.056;2022-11-15T04:51:57;12.00;87.50
47590;DHT22;33316;52.298;9.056;2022-11-15T04:54:24;12.10;87.60
47590;DHT22;33316;52.298;9.056;2022-11-15T04:56:50;12.10;87.50
47590;DHT22;33316;52.298;9.056;2022-11-15T04:59:17;12.00;87.40
47590;DHT22;33316;52.298;9.056;2022-11-15T05:01:44;12.00;87.40
47590;DHT22;33316;52.298;9.056;2022-11-15T05:04:11;12.00;87.40
47590;DHT22;33316;52.298;9.056;2022-11-15T05:06:47;12.00;87.30
47590;DHT22;33316;52.298;9.056;2022-11-15T05:09:15;12.00;87.20
47590;DHT22;33316;52.298;9.056;2022-11-15T05:11:42;12.00;87.20
47590;DHT22;33316;52.298;9.056;2022-11-15T05:14:09;12.00;87.20
47590;DHT22;33316;52.298;9.056;2022-11-15T05:16:36;12.00;87.20
47590;DHT22;33316;52.298;9.056;2022-11-15T05:19:03;12.00;87.20
47590;DHT22;33316;52.298;9.056;2022-11-15T05:21:30;11.90;87.10
47590;DHT22;33316;52.298;9.056;2022-11-15T05:23:57;12.00;87.20
47590;DHT22;33316;52.298;9.056;2022-11-15T05:26:26;12.00;87.20
47590;DHT22;33316;52.298;9.056;2022-11-15T05:28:54;12.00;87.10
47590;DHT22;33316;52.298;9.056;2022-11-15T05:31:21;12.00;87.10
47590;DHT22;33316;52.298;9.056;2022-11-15T05:33:49;12.00;87.10
47590;DHT22;33316;52.298;9.056;2022-11-15T05:36:18;12.00;87.10
47590;DHT22;33316;52.298;9.056;2022-11-15T05:38:48;12.00;87.10
47590;DHT22;33316;52.298;9.056;2022-11-15T05:41:16;12.00;87.10
47590;DHT22;33316;52.298;9.056;2022-11-15T05:43:46;12.00;87.10
47590;DHT22;33316;52.298;9.056;2022-11-15T05:46:14;12.00;87.00
47590;DHT22;33316;52.298;9.056;2022-11-15T05:48:43;12.00;87.00
47590;DHT22;33316;52.298;9.056;2022-11-15T05:51:13;12.00;87.00
47590;DHT22;33316;52.298;9.056;2022-11-15T05:53:41;12.00;87.00
47590;DHT22;33316;52.298;9.056;2022-11-15T05:56:09;12.00;87.00
47590;DHT22;33316;52.298;9.056;2022-11-15T05:58:37;12.00;87.00
47590;DHT22;33316;52.298;9.056;2022-11-15T06:01:05;12.00;87.00
47590;DHT22;33316;52.298;9.056;2022-11-15T06:03:32;12.00;87.00
47590;DHT22;33316;52.298;9.056;2022-11-15T06:05:59;12.00;87.00
47590;DHT22;33316;52.298;9.056;2022-11-15T06:08:25;12.10;87.00
47590;DHT22;33316;52.298;9.056;2022-11-15T06:10:52;12.10;87.00
47590;DHT22;33316;52.298;9.056;2022-11-15T06:13:19;12.10;86.90
47590;DHT22;33316;52.298;9.056;2022-11-15T06:15:45;12.10;87.00
47590;DHT22;33316;52.298;9.056;2022-11-15T06:18:13;12.10;87.00
47590;DHT22;33316;52.298;9.056;2022-11-15T06:20:40;12.10;87.00
47590;DHT22;33316;52.298;9.056;2022-11-15T06:23:07;12.20;87.00
47590;DHT22;33316;52.298;9.056;2022-11-15T06:25:34;12.20;86.90
47590;DHT22;33316;52.298;9.056;2022-11-15T06:28:00;12.20;86.90
47590;DHT22;33316;52.298;9.056;2022-11-15T06:30:27;12.20;86.90
47590;DHT22;33316;52.298;9.056;2022-11-15T06:32:59;12.20;86.80
47590;DHT22;33316;52.298;9.056;2022-11-15T06:35:28;12.20;86.80
47590;DHT22;33316;52.298;9.056;2022-11-15T06:37:56;12.20;86.80
47590;DHT22;33316;52.298;9.056;2022-11-15T06:40:22;12.20;86.70
47590;DHT22;33316;52.298;9.056;2022-11-15T06:42:49;12.20;86.70
47590;DHT22;33316;52.298;9.056;2022-11-15T06:45:16;12.20;86.70
47590;DHT22;33316;52.298;9.056;2022-11-15T06:47:46;12.30;86.70
47590;DHT22;33316;52.298;9.056;2022-11-15T06:50:13;12.30;86.60
47590;DHT22;33316;52.298;9.056;2022-11-15T06:52:42;12.30;86.60
47590;DHT22;33316;52.298;9.056;2022-11-15T06:55:09;12.40;86.50
47590;DHT22;33316;52.298;9.056;2022-11-15T06:57:36;12.40;86.40
47590;DHT22;33316;52.298;9.056;2022-11-15T07:00:03;12.40;86.30
47590;DHT22;33316;52.298;9.056;2022-11-15T07:02:30;12.40;86.30
47590;DHT22;33316;52.298;9.056;2022-11-15T07:04:57;12.40;86.20
47590;DHT22;33316;52.298;9.056;2022-11-15T07:07:23;12.40;86.20
47590;DHT22;33316;52.298;9.056;2022-11-15T07:09:52;12.40;86.20
47590;DHT22;33316;52.298;9.056;2022-11-15T07:12:18;12.40;86.90
47590;DHT22;33316;52.298;9.056;2022-11-15T07:14:45;12.40;86.20
47590;DHT22;33316;52.298;9.056;2022-11-15T07:17:12;12.40;86.20
47590;DHT22;33316;52.298;9.056;2022-11-15T07:19:38;12.40;86.10
47590;DHT22;33316;52.298;9.056;2022-11-15T07:22:05;12.30;86.10
47590;DHT22;33316;52.298;9.056;2022-11-15T07:24:32;12.40;86.10
47590;DHT22;33316;52.298;9.056;2022-11-15T07:27:00;12.30;86.00
47590;DHT22;33316;52.298;9.056;2022-11-15T07:29:27;12.30;85.90
47590;DHT22;33316;52.298;9.056;2022-11-15T07:31:54;12.30;85.90
47590;DHT22;33316;52.298;9.056;2022-11-15T07:34:20;12.30;85.80
47590;DHT22;33316;52.298;9.056;2022-11-15T07:36:47;12.30;85.80
47590;DHT22;33316;52.298;9.056;2022-11-15T07:39:14;12.30;85.80
47590;DHT22;33316;52.298;9.056;2022-11-15T07:41:41;12.40;85.80
47590;DHT22;33316;52.298;9.056;2022-11-15T07:44:10;12.40;85.80
47590;DHT22;33316;52.298;9.056;2022-11-15T07:46:36;12.40;85.60
47590;DHT22;33316;52.298;9.056;2022-11-15T07:49:03;12.50;85.60
47590;DHT22;33316;52.298;9.056;2022-11-15T07:51:30;12.50;85.50
47590;DHT22;33316;52.298;9.056;2022-11-15T07:53:57;12.60;85.40
47590;DHT22;33316;52.298;9.056;2022-11-15T07:56:24;12.60;85.20
47590;DHT22;33316;52.298;9.056;2022-11-15T07:58:50;12.70;85.20
47590;DHT22;33316;52.298;9.056;2022-11-15T08:01:18;12.70;85.00
47590;DHT22;33316;52.298;9.056;2022-11-15T08:03:45;12.80;84.90
47590;DHT22;33316;52.298;9.056;2022-11-15T08:06:12;12.80;84.80
47590;DHT22;33316;52.298;9.056;2022-11-15T08:08:39;12.90;84.70
47590;DHT22;33316;52.298;9.056;2022-11-15T08:11:05;12.90;84.50
47590;DHT22;33316;52.298;9.056;2022-11-15T08:13:32;13.00;84.40
47590;DHT22;33316;52.298;9.056;2022-11-15T08:15:59;13.00;84.20
47590;DHT22;33316;52.298;9.056;2022-11-15T08:18:27;13.10;84.20
47590;DHT22;33316;52.298;9.056;2022-11-15T08:20:58;13.10;84.10
47590;DHT22;33316;52.298;9.056;2022-11-15T08:23:25;13.10;84.00
47590;DHT22;33316;52.298;9.056;2022-11-15T08:25:53;13.20;83.90
47590;DHT22;33316;52.298;9.056;2022-11-15T08:28:25;13.20;83.90
47590;DHT22;33316;52.298;9.056;2022-11-15T08:30:51;13.30;83.70
47590;DHT22;33316;52.298;9.056;2022-11-15T08:33:18;13.30;83.60
47590;DHT22;33316;52.298;9.056;2022-11-15T08:35:46;13.30;83.50
47590;DHT22;33316;52.298;9.056;2022-11-15T08:38:14;13.30;83.40
47590;DHT22;33316;52.298;9.056;2022-11-15T08:40:41;13.40;83.40
47590;DHT22;33316;52.298;9.056;2022-11-15T08:43:07;13.40;83.30
47590;DHT22;33316;52.298;9.056;2022-11-15T08:45:35;13.50;83.20
47590;DHT22;33316;52.298;9.056;2022-11-15T08:48:02;13.50;83.10
47590;DHT22;33316;52.298;9.056;2022-11-15T08:50:29;13.50;83.00
47590;DHT22;33316;52.298;9.056;2022-11-15T08:52:59;13.60;83.00
47590;DHT22;33316;52.298;9.056;2022-11-15T08:55:30;13.60;82.90
47590;DHT22;33316;52.298;9.056;2022-11-15T08:57:57;13.60;82.80
47590;DHT22;33316;52.298;9.056;2022-11-15T09:00:24;13.60;82.80
47590;DHT22;33316;52.298;9.056;2022-11-15T09:02:50;13.60;82.60
47590;DHT22;33316;52.298;9.056;2022-11-15T09:05:17;13.70;82.60
47590;DHT22;33316;52.298;9.056;2022-11-15T09:07:44;13.70;82.60
47590;DHT22;33316;52.298;9.056;2022-11-15T09:10:12;13.70;82.40
47590;DHT22;33316;52.298;9.056;2022-11-15T09:12:39;13.80;82.30
47590;DHT22;33316;52.298;9.056;2022-11-15T09:15:06;13.80;82.20
47590;DHT22;33316;52.298;9.056;2022-11-15T09:17:33;13.90;82.20
47590;DHT22;33316;52.298;9.056;2022-11-15T09:20:00;13.90;82.10
47590;DHT22;33316;52.298;9.056;2022-11-15T09:22:27;14.00;82.00
47590;DHT22;33316;52.298;9.056;2022-11-15T09:24:54;14.00;81.80
47590;DHT22;33316;52.298;9.056;2022-11-15T09:27:22;14.10;81.70
47590;DHT22;33316;52.298;9.056;2022-11-15T09:29:48;14.20;81.50
47590;DHT22;33316;52.298;9.056;2022-11-15T09:32:15;14.20;81.40
47590;DHT22;33316;52.298;9.056;2022-11-15T09:34:42;14.30;81.20
47590;DHT22;33316;52.298;9.056;2022-11-15T09:37:09;14.30;81.00
47590;DHT22;33316;52.298;9.056;2022-11-15T09:39:35;14.30;80.70
47590;DHT22;33316;52.298;9.056;2022-11-15T09:42:15;14.30;80.60
47590;DHT22;33316;52.298;9.056;2022-11-15T09:45:06;14.40;80.20
47590;DHT22;33316;52.298;9.056;2022-11-15T09:50:37;14.40;79.80
47590;DHT22;33316;52.298;9.056;2022-11-15T09:53:05;14.50;79.80
47590;DHT22;33316;52.298;9.056;2022-11-15T09:55:40;14.50;79.80
47590;DHT22;33316;52.298;9.056;2022-11-15T09:58:18;14.60;79.80
47590;DHT22;33316;52.298;9.056;2022-11-15T10:00:51;14.60;79.80
47590;DHT22;33316;52.298;9.056;2022-11-15T10:03:25;14.60;79.60
47590;DHT22;33316;52.298;9.056;2022-11-15T10:05:55;14.70;79.10
47590;DHT22;33316;52.298;9.056;2022-11-15T10:08:31;14.70;79.10
47590;DHT22;33316;52.298;9.056;2022-11-15T10:11:02;14.70;79.20
47590;DHT22;33316;52.298;9.056;2022-11-15T10:13:32;14.80;79.30
47590;DHT22;33316;52.298;9.056;2022-11-15T10:16:09;14.80;79.00
47590;DHT22;33316;52.298;9.056;2022-11-15T10:18:47;14.90;78.80
47590;DHT22;33316;52.298;9.056;2022-11-15T10:21:19;14.90;78.50
47590;DHT22;33316;52.298;9.056;2022-11-15T10:23:46;14.90;78.40
47590;DHT22;33316;52.298;9.056;2022-11-15T10:26:15;15.00;78.40
47590;DHT22;33316;52.298;9.056;2022-11-15T10:28:42;15.00;78.30
47590;DHT22;33316;52.298;9.056;2022-11-15T10:31:22;15.00;78.10
47590;DHT22;33316;52.298;9.056;2022-11-15T10:33:49;15.10;78.00
47590;DHT22;33316;52.298;9.056;2022-11-15T10:36:23;15.10;77.80
47590;DHT22;33316;52.298;9.056;2022-11-15T10:38:58;15.10;77.70
47590;DHT22;33316;52.298;9.056;2022-11-15T10:41:35;15.20;77.30
47590;DHT22;33316;52.298;9.056;2022-11-15T10:44:12;15.20;76.90
47590;DHT22;33316;52.298;9.056;2022-11-15T10:46:41;15.20;76.70
47590;DHT22;33316;52.298;9.056;2022-11-15T10:49:15;15.20;76.50
47590;DHT22;33316;52.298;9.056;2022-11-15T10:51:45;15.20;76.30
47590;DHT22;33316;52.298;9.056;2022-11-15T10:54:14;15.20;76.20
47590;DHT22;33316;52.298;9.056;2022-11-15T10:56:42;15.20;76.00
47590;DHT22;33316;52.298;9.056;2022-11-15T10:59:16;15.20;75.70
47590;DHT22;33316;52.298;9.056;2022-11-15T11:01:48;15.30;75.50
47590;DHT22;33316;52.298;9.056;2022-11-15T11:04:15;15.30;75.20
47590;DHT22;33316;52.298;9.056;2022-11-15T11:06:49;15.30;75.40
47590;DHT22;33316;52.298;9.056;2022-11-15T11:09:31;15.40;75.20
47590;DHT22;33316;52.298;9.056;2022-11-15T11:11:59;15.40;75.20
47590;DHT22;33316;52.298;9.056;2022-11-15T11:14:28;15.40;74.80
47590;DHT22;33316;52.298;9.056;2022-11-15T11:17:02;15.40;74.50
47590;DHT22;33316;52.298;9.056;2022-11-15T11:19:47;15.40;74.20
47590;DHT22;33316;52.298;9.056;2022-11-15T11:22:23;15.50;74.10
47590;DHT22;33316;52.298;9.056;2022-11-15T11:25:02;15.50;73.80
47590;DHT22;33316;52.298;9.056;2022-11-15T11:27:39;15.50;73.80
47590;DHT22;33316;52.298;9.056;2022-11-15T11:30:11;15.50;73.80
47590;DHT22;33316;52.298;9.056;2022-11-15T11:32:50;15.50;74.10
47590;DHT22;33316;52.298;9.056;2022-11-15T11:35:25;15.60;73.90
47590;DHT22;33316;52.298;9.056;2022-11-15T11:37:59;15.60;73.50
47590;DHT22;33316;52.298;9.056;2022-11-15T11:40:32;15.70;73.40
47590;DHT22;33316;52.298;9.056;2022-11-15T11:43:07;15.70;73.10
47590;DHT22;33316;52.298;9.056;2022-11-15T11:45:52;15.70;72.70
47590;DHT22;33316;52.298;9.056;2022-11-15T11:48:39;15.70;72.40
47590;DHT22;33316;52.298;9.056;2022-11-15T11:51:13;15.70;72.00
47590;DHT22;33316;52.298;9.056;2022-11-15T11:53:46;15.70;72.20
47590;DHT22;33316;52.298;9.056;2022-11-15T11:56:23;15.80;72.40
47590;DHT22;33316;52.298;9.056;2022-11-15T11:58:52;15.80;72.20
47590;DHT22;33316;52.298;9.056;2022-11-15T12:01:23;15.80;72.30
47590;DHT22;33316;52.298;9.056;2022-11-15T12:03:56;15.80;72.30
47590;DHT22;33316;52.298;9.056;2022-11-15T12:06:30;15.80;72.30
47590;DHT22;33316;52.298;9.056;2022-11-15T12:09:02;15.80;72.40
47590;DHT22;33316;52.298;9.056;2022-11-15T12:11:37;15.90;72.40
47590;DHT22;33316;52.298;9.056;2022-11-15T12:14:11;15.80;72.00
47590;DHT22;33316;52.298;9.056;2022-11-15T12:16:42;15.80;72.00
47590;DHT22;33316;52.298;9.056;2022-11-15T12:19:10;15.80;72.00
47590;DHT22;33316;52.298;9.056;2022-11-15T12:21:42;15.90;71.80
47590;DHT22;33316;52.298;9.056;2022-11-15T12:24:16;15.90;71.60
47590;DHT22;33316;52.298;9.056;2022-11-15T12:26:49;15.80;71.60
47590;DHT22;33316;52.298;9.056;2022-11-15T12:29:22;15.90;71.60
47590;DHT22;33316;52.298;9.056;2022-11-15T12:31:52;15.90;71.60
47590;DHT22;33316;52.298;9.056;2022-11-15T12:37:50;15.90;70.90
47590;DHT22;33316;52.298;9.056;2022-11-15T12:40:33;15.90;70.90
47590;DHT22;33316;52.298;9.056;2022-11-15T12:46:02;15.90;71.20
47590;DHT22;33316;52.298;9.056;2022-11-15T12:48:48;15.90;71.40
47590;DHT22;33316;52.298;9.056;2022-11-15T12:51:16;15.90;71.40
47590;DHT22;33316;52.298;9.056;2022-11-15T12:53:44;15.90;71.30
47590;DHT22;33316;52.298;9.056;2022-11-15T12:56:21;15.90;71.40
47590;DHT22;33316;52.298;9.056;2022-11-15T12:58:50;15.90;71.00
47590;DHT22;33316;52.298;9.056;2022-11-15T13:04:26;15.90;71.10
47590;DHT22;33316;52.298;9.056;2022-11-15T13:06:54;15.90;71.40
47590;DHT22;33316;52.298;9.056;2022-11-15T13:09:51;15.90;71.30
47590;DHT22;33316;52.298;9.056;2022-11-15T13:12:49;15.90;71.00
47590;DHT22;33316;52.298;9.056;2022-11-15T13:15:52;15.90;71.10
47590;DHT22;33316;52.298;9.056;2022-11-15T13:18:30;15.90;71.10
47590;DHT22;33316;52.298;9.056;2022-11-15T13:20:58;15.90;71.20
47590;DHT22;33316;52.298;9.056;2022-11-15T13:23:26;15.90;71.40
47590;DHT22;33316;52.298;9.056;2022-11-15T13:26:10;15.90;71.40
47590;DHT22;33316;52.298;9.056;2022-11-15T13:28:42;15.90;71.20
47590;DHT22;33316;52.298;9.056;2022-11-15T13:31:25;15.90;71.20
47590;DHT22;33316;52.298;9.056;2022-11-15T13:33:56;15.90;71.20
47590;DHT22;33316;52.298;9.056;2022-11-15T13:36:25;15.90;71.40
47590;DHT22;33316;52.298;9.056;2022-11-15T13:38:58;15.90;71.40
47590;DHT22;33316;52.298;9.056;2022-11-15T13:41:28;15.90;71.10
47590;DHT22;33316;52.298;9.056;2022-11-15T13:43:56;15.90;71.70
47590;DHT22;33316;52.298;9.056;2022-11-15T13:46:24;15.90;71.80
47590;DHT22;33316;52.298;9.056;2022-11-15T13:48:55;15.80;71.70
47590;DHT22;33316;52.298;9.056;2022-11-15T13:51:26;15.80;71.80
47590;DHT22;33316;52.298;9.056;2022-11-15T13:53:56;15.80;71.90
47590;DHT22;33316;52.298;9.056;2022-11-15T13:56:26;15.80;72.20
47590;DHT22;33316;52.298;9.056;2022-11-15T13:58:53;15.70;72.00
47590;DHT22;33316;52.298;9.056;2022-11-15T14:01:21;15.70;72.40
47590;DHT22;33316;52.298;9.056;2022-11-15T14:03:55;15.70;72.30
47590;DHT22;33316;52.298;9.056;2022-11-15T14:06:24;15.70;72.40
47590;DHT22;33316;52.298;9.056;2022-11-15T14:09:14;15.70;72.60
47590;DHT22;33316;52.298;9.056;2022-11-15T14:11:51;15.70;72.40
47590;DHT22;33316;52.298;9.056;2022-11-15T14:14:20;15.60;72.50
47590;DHT22;33316;52.298;9.056;2022-11-15T14:16:49;15.60;72.70
47590;DHT22;33316;52.298;9.056;2022-11-15T14:19:38;15.60;72.60
47590;DHT22;33316;52.298;9.056;2022-11-15T14:22:17;15.60;72.30
47590;DHT22;33316;52.298;9.056;2022-11-15T14:24:47;15.60;72.40
47590;DHT22;33316;52.298;9.056;2022-11-15T14:27:32;15.60;72.60
47590;DHT22;33316;52.298;9.056;2022-11-15T14:30:00;15.50;72.60
47590;DHT22;33316;52.298;9.056;2022-11-15T14:32:29;15.50;72.80
47590;DHT22;33316;52.298;9.056;2022-11-15T14:34:57;15.50;72.90
47590;DHT22;33316;52.298;9.056;2022-11-15T14:37:26;15.50;72.80
47590;DHT22;33316;52.298;9.056;2022-11-15T14:39:54;15.50;72.60
47590;DHT22;33316;52.298;9.056;2022-11-15T14:42:22;15.50;72.50
47590;DHT22;33316;52.298;9.056;2022-11-15T14:44:52;15.40;72.20
47590;DHT22;33316;52.298;9.056;2022-11-15T14:47:19;15.40;72.30
47590;DHT22;33316;52.298;9.056;2022-11-15T14:49:46;15.40;72.20
47590;DHT22;33316;52.298;9.056;2022-11-15T14:52:24;15.40;72.40
47590;DHT22;33316;52.298;9.056;2022-11-15T14:54:53;15.40;72.40
47590;DHT22;33316;52.298;9.056;2022-11-15T14:57:20;15.30;72.40
47590;DHT22;33316;52.298;9.056;2022-11-15T14:59:47;15.30;72.50
47590;DHT22;33316;52.298;9.056;2022-11-15T15:02:18;15.30;72.50
47590;DHT22;33316;52.298;9.056;2022-11-15T15:04:46;15.20;72.50
47590;DHT22;33316;52.298;9.056;2022-11-15T15:07:12;15.20;72.80
47590;DHT22;33316;52.298;9.056;2022-11-15T15:09:40;15.20;72.80
47590;DHT22;33316;52.298;9.056;2022-11-15T15:12:14;15.10;72.80
47590;DHT22;33316;52.298;9.056;2022-11-15T15:14:41;15.10;72.80
47590;DHT22;33316;52.298;9.056;2022-11-15T15:17:08;15.00;72.90
47590;DHT22;33316;52.298;9.056;2022-11-15T15:19:36;15.00;73.00
47590;DHT22;33316;52.298;9.056;2022-11-15T15:22:04;15.00;73.20
47590;DHT22;33316;52.298;9.056;2022-11-15T15:24:31;14.90;73.20
47590;DHT22;33316;52.298;9.056;2022-11-15T15:26:57;14.90;73.30
47590;DHT22;33316;52.298;9.056;2022-11-15T15:29:24;14.90;73.40
47590;DHT22;33316;52.298;9.056;2022-11-15T15:31:51;14.90;73.50
47590;DHT22;33316;52.298;9.056;2022-11-15T15:34:18;14.80;73.60
47590;DHT22;33316;52.298;9.056;2022-11-15T15:36:48;14.80;73.60
47590;DHT22;33316;52.298;9.056;2022-11-15T15:39:15;14.80;73.70
47590;DHT22;33316;52.298;9.056;2022-11-15T15:41:42;14.80;73.70
47590;DHT22;33316;52.298;9.056;2022-11-15T15:44:09;14.80;73.80
47590;DHT22;33316;52.298;9.056;2022-11-15T15:46:35;14.70;73.90
47590;DHT22;33316;52.298;9.056;2022-11-15T15:49:02;14.70;74.00
47590;DHT22;33316;52.298;9.056;2022-11-15T15:51:29;14.70;74.10
47590;DHT22;33316;52.298;9.056;2022-11-15T15:53:57;14.70;74.20
47590;DHT22;33316;52.298;9.056;2022-11-15T15:56:24;14.70;74.40
47590;DHT22;33316;52.298;9.056;2022-11-15T15:58:51;14.70;74.40
47590;DHT22;33316;52.298;9.056;2022-11-15T16:01:18;14.70;74.40
47590;DHT22;33316;52.298;9.056;2022-11-15T16:03:45;14.70;74.50
47590;DHT22;33316;52.298;9.056;2022-11-15T16:06:35;14.70;74.70
47590;DHT22;33316;52.298;9.056;2022-11-15T16:09:04;14.70;74.80